Latest Weather Observations for Girilambone

IDN60801

Issued at 10:52 pm EST Thursday 20 September 2018 (issued every 10 minutes, with the page automatically refreshed every 10 minutes)

About weather observations | Map of weather stations | Latest weather observations for NSW | Other Formats
Station Details ID: 051164 Name: GIRILAMBONE (OKEH) AWS Lat: -31.08 Lon: 146.93 Height: 178.0 m
Data from the previous 72 hours. | See also: Recent months at Girilambone
Date/Time
EST
Temp
°C
App
Temp
°C
Dew
Point
°C
Rel
Hum
%
Delta-T
°C
Wind Press
QNH
hPa
Press
MSL
hPa
Rain since
9am
mm
Dir  Spd
km/h
Gust
km/h
Spd
kts
Gust
kts
20/10:30pm 10.4 - -5.6 32 5.7 - - - - - - - 0.0
20/10:00pm 10.0 - -5.9 32 5.6 - - - - - - - 0.0
20/09:30pm 10.9 - -5.5 31 5.9 - - - - - - - 0.0
20/09:00pm 10.9 - -6.0 30 6.0 - - - - - - - 0.0
20/08:30pm 11.8 - -6.1 28 6.4 - - - - - - - 0.0
20/08:00pm 13.2 - -6.4 25 7.1 - - - - - - - 0.0
20/07:30pm 14.9 - -6.0 23 7.8 - - - - - - - 0.0
20/07:00pm 16.8 - -5.6 21 8.6 - - - - - - - 0.0
20/06:30pm 17.9 - -5.3 20 9.1 - - - - - - - 0.0
20/06:00pm 18.7 - -6.1 18 9.6 - - - - - - - 0.0
20/05:30pm 19.3 - -6.3 17 10.0 - - - - - - - 0.0
20/05:00pm 19.9 - -5.8 17 10.2 - - - - - - - 0.0
20/04:30pm 20.0 - -5.0 18 10.1 - - - - - - - 0.0
20/04:00pm 20.0 - -5.0 18 10.1 - - - - - - - 0.0
20/03:30pm 20.2 - -4.8 18 10.1 - - - - - - - 0.0
20/03:00pm 20.1 - -4.2 19 10.0 - - - - - - - 0.0
20/02:30pm 19.9 - -3.7 20 9.8 - - - - - - - 0.0
20/02:00pm 19.5 - -4.0 20 9.6 - - - - - - - 0.0
20/01:30pm 19.6 - -4.6 19 9.8 - - - - - - - 0.0
20/01:00pm 19.5 - -3.4 21 9.5 - - - - - - - 0.0
20/12:30pm 19.4 - -2.8 22 9.3 - - - - - - - 0.0
20/12:00pm 18.2 - -1.6 26 8.4 - - - - - - - 0.0
20/11:30am 17.7 - -2.5 25 8.4 - - - - - - - 0.0
20/11:00am 17.4 - -2.3 26 8.2 - - - - - - - 0.0
20/10:30am 17.6 - -2.1 26 8.2 - - - - - - - 0.0
20/10:00am 16.7 - -2.9 26 8.0 - - - - - - - 0.0
20/09:30am 15.9 - -3.0 27 7.6 - - - - - - - 0.0
20/09:00am 15.3 - -2.6 29 7.2 - - - - - - - 0.0
20/08:30am 14.1 - -3.2 30 6.8 - - - - - - - 0.0
20/08:00am 13.4 - -3.4 31 6.5 - - - - - - - 0.0
20/07:30am 11.8 - -3.5 34 5.8 - - - - - - - 0.0
20/07:00am 10.1 - -3.9 37 5.2 - - - - - - - 0.0
20/06:30am 8.6 - -4.2 40 4.6 - - - - - - - 0.0
20/06:00am 7.7 - -4.4 42 4.3 - - - - - - - 0.0
20/05:30am 6.5 - -4.9 44 3.9 - - - - - - - 0.0
20/05:00am 7.5 - -4.2 43 4.2 - - - - - - - 0.0
20/04:30am 7.4 - -4.7 42 4.3 - - - - - - - 0.0
20/04:00am 7.1 - -5.2 41 4.3 - - - - - - - 0.0
20/03:30am 7.3 - -5.4 40 4.4 - - - - - - - 0.0
20/03:00am 8.1 - -6.0 36 4.8 - - - - - - - 0.0
20/02:30am 9.7 - -5.4 34 5.4 - - - - - - - 0.0
20/02:00am 10.7 - -5.7 31 5.9 - - - - - - - 0.0
20/01:30am 11.5 - -5.9 29 6.3 - - - - - - - 0.0
20/01:00am 11.9 - -6.0 28 6.5 - - - - - - - 0.0
20/12:30am 12.1 - -6.3 27 6.6 - - - - - - - 0.0
20/12:00am 12.3 - -6.6 26 6.8 - - - - - - - 0.0
 
Date/Time
EST
Temp
°C
App
Temp
°C
Dew
Point
°C
Rel
Hum
%
Delta-T
°C
Wind Press
QNH
hPa
Press
MSL
hPa
Rain since
9am
mm
Dir  Spd
km/h
Gust
km/h
Spd
kts
Gust
kts
19/11:30pm 13.0 - -6.5 25 7.0 - - - - - - - 0.0
19/11:00pm 13.6 - -6.6 24 7.3 - - - - - - - 0.0
19/10:30pm 14.0 - -6.2 24 7.4 - - - - - - - 0.0
19/10:00pm 14.8 - -6.1 23 7.8 - - - - - - - 0.0
19/09:30pm 15.1 - -5.3 24 7.8 - - - - - - - 0.0
19/09:00pm 15.9 - -4.6 24 8.0 - - - - - - - 0.0
19/08:30pm 16.4 - -3.7 25 8.0 - - - - - - - 0.0
19/08:00pm 17.1 - -3.1 25 8.2 - - - - - - - 0.0
19/07:30pm 17.9 - -2.9 24 8.6 - - - - - - - 0.0
19/07:00pm 18.9 - -2.7 23 9.0 - - - - - - - 0.0
19/06:30pm 19.5 - -2.2 23 9.2 - - - - - - - 0.0
19/06:00pm 20.6 - -2.5 21 9.8 - - - - - - - 0.0
19/05:30pm 21.5 - -1.7 21 10.1 - - - - - - - 0.0
19/05:00pm 22.1 - -1.9 20 10.5 - - - - - - - 0.0
19/04:30pm 23.4 - -1.5 19 11.1 - - - - - - - 0.0
19/04:00pm 23.2 - -1.7 19 11.0 - - - - - - - 0.0
19/03:30pm 23.1 - -1.8 19 11.0 - - - - - - - 0.0
19/03:00pm 23.7 - -1.3 19 11.2 - - - - - - - 0.0
19/02:30pm 22.8 - -0.6 21 10.6 - - - - - - - 0.0
19/02:00pm 22.7 - -0.7 21 10.5 - - - - - - - 0.0
19/01:30pm 23.0 - -0.5 21 10.6 - - - - - - - 0.0
19/01:00pm 21.0 - -0.9 23 9.7 - - - - - - - 0.0
19/12:30pm 20.9 - -0.4 24 9.5 - - - - - - - 0.0
19/12:00pm 20.6 - -0.1 25 9.3 - - - - - - - 0.0
19/11:30am 20.2 - 0.6 27 8.9 - - - - - - - 0.0
19/11:00am 19.3 - 0.8 29 8.3 - - - - - - - 0.0
19/10:30am 19.5 - 1.0 29 8.4 - - - - - - - 0.0
19/10:00am 17.5 - 1.9 35 7.1 - - - - - - - 0.0
19/09:30am 17.1 - 3.1 39 6.5 - - - - - - - 0.0
19/09:00am 16.9 - 3.2 40 6.4 - - - - - - - 0.0
19/08:30am 16.9 - 2.9 39 6.5 - - - - - - - 0.0
19/08:00am 16.5 - -2.5 27 7.8 - - - - - - - 0.0
19/07:30am 16.5 - -7.2 19 8.8 - - - - - - - 0.0
19/07:00am 16.0 - -9.0 17 8.9 - - - - - - - 0.0
19/06:58am 15.8 - -9.2 17 8.8 - - - - - - - 0.0
19/06:30am 10.6 - -6.2 30 5.9 - - - - - - - 0.0
19/06:00am 10.4 - -6.8 29 6.0 - - - - - - - 0.0
19/05:30am 10.6 - -8.1 26 6.3 - - - - - - - 0.0
19/05:00am 10.1 - -7.6 28 6.0 - - - - - - - 0.0
19/04:30am 10.6 - -7.6 27 6.2 - - - - - - - 0.0
19/04:00am 10.8 - -7.9 26 6.4 - - - - - - - 0.0
19/03:30am 12.7 - -7.9 23 7.2 - - - - - - - 0.0
19/03:00am 11.9 - -7.0 26 6.7 - - - - - - - 0.0
19/02:30am 10.1 - -7.1 29 5.9 - - - - - - - 0.0
19/02:00am 10.2 - -8.4 26 6.2 - - - - - - - 0.0
19/01:30am 10.3 - -7.9 27 6.2 - - - - - - - 0.0
19/01:00am 9.5 - -8.1 28 5.9 - - - - - - - 0.0
19/12:30am 9.3 - -8.7 27 5.9 - - - - - - - 0.0
19/12:00am 9.2 - -8.3 28 5.8 - - - - - - - 0.0
 
Date/Time
EST
Temp
°C
App
Temp
°C
Dew
Point
°C
Rel
Hum
%
Delta-T
°C
Wind Press
QNH
hPa
Press
MSL
hPa
Rain since
9am
mm
Dir  Spd
km/h
Gust
km/h
Spd
kts
Gust
kts
18/11:30pm 9.5 - -9.0 26 6.0 - - - - - - - 0.0
18/11:00pm 9.9 - -8.7 26 6.1 - - - - - - - 0.0
18/10:30pm 10.6 - -8.1 26 6.3 - - - - - - - 0.0
18/10:00pm 11.4 - -8.4 24 6.7 - - - - - - - 0.0
18/09:30pm 11.6 - -8.8 23 6.9 - - - - - - - 0.0
18/09:00pm 13.1 - -8.7 21 7.5 - - - - - - - 0.0
18/08:30pm 14.8 - -9.3 18 8.4 - - - - - - - 0.0
18/08:00pm 16.2 - -9.6 16 9.1 - - - - - - - 0.0
18/07:30pm 17.1 - -9.7 15 9.5 - - - - - - - 0.0
18/07:00pm 20.1 - -11.2 11 11.2 - - - - - - - 0.0
18/06:30pm 22.8 - -11.7 9 12.6 - - - - - - - 0.0
18/06:00pm 24.9 - -11.6 8 13.6 - - - - - - - 0.0
18/05:30pm 26.0 - -10.8 8 14.1 - - - - - - - 0.0
18/05:00pm 26.3 - -10.5 8 14.2 - - - - - - - 0.0
18/04:30pm 26.9 - -10.1 8 14.5 - - - - - - - 0.0
18/04:00pm 26.8 - -10.2 8 14.5 - - - - - - - 0.0
18/03:30pm 27.2 - -9.9 8 14.6 - - - - - - - 0.0
18/03:00pm 26.5 - -10.4 8 14.3 - - - - - - - 0.0
18/02:30pm 26.6 - -8.8 9 14.2 - - - - - - - 0.0
18/02:00pm 26.5 - -8.9 9 14.1 - - - - - - - 0.0
18/01:30pm 26.1 - -6.6 11 13.6 - - - - - - - 0.0
18/01:00pm 24.8 - -4.5 14 12.5 - - - - - - - 0.0
18/12:30pm 25.0 - -4.3 14 12.5 - - - - - - - 0.0
18/12:00pm 23.6 - -4.5 15 11.8 - - - - - - - 0.0
18/11:30am 23.6 - -2.8 17 11.5 - - - - - - - 0.0
18/11:00am 22.9 - -1.9 19 10.9 - - - - - - - 0.0
18/10:30am 21.7 - -0.9 22 10.0 - - - - - - - 0.0
18/10:00am 20.9 - -0.4 24 9.5 - - - - - - - 0.0
18/09:30am 19.6 - -0.4 26 8.8 - - - - - - - 0.0
18/09:00am 17.1 - -2.0 27 8.0 - - - - - - - 0.0
18/08:30am 15.1 - -2.3 30 7.1 - - - - - - - 0.0
18/08:00am 13.2 - -2.7 33 6.3 - - - - - - - 0.0
18/07:30am 10.0 - -3.6 38 5.1 - - - - - - - 0.0
18/07:00am 5.5 - -5.8 44 3.8 - - - - - - - 0.0
18/06:30am 3.5 - -6.5 48 3.2 - - - - - - - 0.0
18/06:00am 3.4 - -6.5 48 3.2 - - - - - - - 0.0
18/05:30am 3.5 - -6.7 47 3.2 - - - - - - - 0.0
18/05:00am 3.8 - -6.7 46 3.3 - - - - - - - 0.0
18/04:30am 4.2 - -6.7 45 3.5 - - - - - - - 0.0
18/04:00am 4.3 - -6.9 44 3.6 - - - - - - - 0.0
18/03:30am 4.5 - -6.7 44 3.6 - - - - - - - 0.0
18/03:00am 4.6 - -6.6 44 3.6 - - - - - - - 0.0
18/02:30am 5.0 - -6.8 42 3.8 - - - - - - - 0.0
18/02:00am 5.2 - -6.6 42 3.8 - - - - - - - 0.0
18/01:30am 5.4 - -6.8 41 4.0 - - - - - - - 0.0
18/01:00am 6.1 - -6.8 39 4.2 - - - - - - - 0.0
18/12:30am 6.0 - -6.9 39 4.2 - - - - - - - 0.0
18/12:00am 6.6 - -7.0 37 4.5 - - - - - - - 0.0
 
Date/Time
EST
Temp
°C
App
Temp
°C
Dew
Point
°C
Rel
Hum
%
Delta-T
°C
Wind Press
QNH
hPa
Press
MSL
hPa
Rain since
9am
mm
Dir  Spd
km/h
Gust
km/h
Spd
kts
Gust
kts
17/11:30pm 7.1 - -6.9 36 4.6 - - - - - - - 0.0
17/11:00pm 7.5 - -6.9 35 4.8 - - - - - - - 0.0

Other Formats:

Comma delimited format used in spreadsheet applications
http://www.bom.gov.au/fwo/IDN60801/IDN60801.94794.axf

JavaScript Object Notation format (JSON) in row-major order
http://www.bom.gov.au/fwo/IDN60801/IDN60801.94794.json